Terminal Aerodrome Forecast
Issued by NWS Pocatello, ID

Home | Current Version | Previous Version | Text Only | Print | Product List | Glossary On
Versions: 1 2 3 4 5 6 7 8 9 10 11 12 13
000
FTUS45 KPIH 171100
TAFPIH
TAF
KPIH 171120Z 1712/1812 VRB05KT P6SM VCTS BKN120CB
     FM180300 VRB05KT P6SM SCT100 BKN180
     FM180900 VRB05KT P6SM VCSH SCT080 BKN120=

USA.gov is the U.S. government's official web portal to all federal, state and local government web resources and services.